Time,TemperatureF,DewpointF,PressureIn,WindDirection,WindDirectionDegrees,WindSpeedMPH,WindSpeedGustMPH,Humidity,HourlyPrecipIn,Conditions,Clouds,dailyrainin,SolarRadiationWatts/m^2,SoftwareType,DateUTC
2013-02-21 00:01:00,72.0,61.0,-100.00,ENE,75,3.0,5.0,68,0.00,,,0.00,0.000000,,2013-02-21 10:01:00,
2013-02-21 00:11:00,72.0,61.0,-100.00,ENE,75,3.0,5.0,68,0.00,,,0.00,0.000000,,2013-02-21 10:11:00,
2013-02-21 00:21:00,72.0,61.0,-100.00,ENE,75,3.0,5.0,68,0.00,,,0.00,0.000000,,2013-02-21 10:21:00,
2013-02-21 00:41:00,71.0,59.0,-100.00,ENE,74,3.0,6.0,66,0.00,,,-99.99,0.000000,,2013-02-21 10:41:00,
2013-02-21 00:51:00,71.0,59.0,-100.00,ENE,74,3.0,6.0,66,0.00,,,-99.99,0.000000,,2013-02-21 10:51:00,
2013-02-21 01:01:00,71.0,59.0,-100.00,ENE,74,3.0,6.0,66,0.00,,,-99.99,0.000000,,2013-02-21 11:01:00,
2013-02-21 01:11:00,71.0,59.0,-100.00,ENE,74,3.0,6.0,66,0.00,,,-99.99,0.000000,,2013-02-21 11:11:00,
2013-02-21 01:20:00,71.0,59.0,-100.00,ENE,74,3.0,6.0,66,0.00,,,-99.99,0.000000,,2013-02-21 11:20:00,
2013-02-21 01:41:00,70.0,58.0,-100.00,ENE,70,4.0,7.0,66,0.00,,,0.00,0.000000,,2013-02-21 11:41:00,
2013-02-21 01:52:00,70.0,58.0,-100.00,ENE,70,4.0,7.0,66,0.00,,,0.00,0.000000,,2013-02-21 11:52:00,
2013-02-21 02:01:00,70.0,58.0,-100.00,ENE,70,4.0,7.0,66,0.00,,,0.00,0.000000,,2013-02-21 12:01:00,
2013-02-21 02:11:00,70.0,58.0,-100.00,ENE,70,4.0,7.0,66,0.00,,,0.00,0.000000,,2013-02-21 12:11:00,
2013-02-21 02:21:00,70.0,58.0,-100.00,ENE,70,4.0,7.0,66,0.00,,,0.00,0.000000,,2013-02-21 12:21:00,
2013-02-21 02:22:00,69.0,57.0,-100.00,ENE,71,4.0,8.0,65,0.00,,,0.00,0.000000,,2013-02-21 12:22:00,
2013-02-21 02:43:00,69.0,57.0,-100.00,ENE,71,4.0,8.0,65,0.00,,,0.00,0.000000,,2013-02-21 12:43:00,
2013-02-21 02:52:00,69.0,57.0,-100.00,ENE,71,4.0,8.0,65,0.00,,,0.00,0.000000,,2013-02-21 12:52:00,
2013-02-21 03:01:00,69.0,57.0,-100.00,ENE,71,4.0,8.0,65,0.00,,,0.00,0.000000,,2013-02-21 13:01:00,
2013-02-21 03:12:00,69.0,57.0,-100.00,ENE,71,4.0,8.0,65,0.00,,,0.00,0.000000,,2013-02-21 13:12:00,
2013-02-21 03:42:00,68.0,53.0,-100.00,ENE,77,4.0,8.0,59,0.00,,,0.00,0.000000,,2013-02-21 13:42:00,
2013-02-21 03:52:00,68.0,53.0,-100.00,ENE,77,4.0,8.0,59,0.00,,,0.00,0.000000,,2013-02-21 13:52:00,
2013-02-21 04:02:00,68.0,53.0,-100.00,ENE,77,4.0,8.0,59,0.00,,,0.00,0.000000,,2013-02-21 14:02:00,
2013-02-21 04:11:00,68.0,53.0,-100.00,ENE,77,4.0,8.0,59,0.00,,,0.00,0.000000,,2013-02-21 14:11:00,
2013-02-21 04:21:00,68.0,53.0,-100.00,ENE,77,4.0,8.0,59,0.00,,,0.00,0.000000,,2013-02-21 14:21:00,
2013-02-21 04:42:00,68.0,54.0,-100.00,East,83,3.0,7.0,60,0.00,,,0.00,0.000000,,2013-02-21 14:42:00,
2013-02-21 04:52:00,68.0,54.0,-100.00,East,83,3.0,7.0,60,0.00,,,0.00,0.000000,,2013-02-21 14:52:00,
2013-02-21 05:01:00,68.0,54.0,-100.00,East,83,3.0,7.0,60,0.00,,,0.00,0.000000,,2013-02-21 15:01:00,
2013-02-21 05:12:00,68.0,54.0,-100.00,East,83,3.0,7.0,60,0.00,,,0.00,0.000000,,2013-02-21 15:12:00,
2013-02-21 05:21:00,68.0,54.0,-100.00,East,83,3.0,7.0,60,0.00,,,0.00,0.000000,,2013-02-21 15:21:00,
2013-02-21 05:42:00,67.0,52.0,-100.00,East,89,3.0,6.0,58,0.00,,,0.00,0.000000,,2013-02-21 15:42:00,
2013-02-21 05:52:00,67.0,52.0,-100.00,East,89,3.0,6.0,58,0.00,,,0.00,0.000000,,2013-02-21 15:52:00,
2013-02-21 06:01:00,67.0,52.0,-100.00,East,89,3.0,6.0,58,0.00,,,0.00,0.000000,,2013-02-21 16:01:00,
2013-02-21 06:12:00,67.0,52.0,-100.00,East,89,3.0,6.0,58,0.00,,,0.00,0.000000,,2013-02-21 16:12:00,
2013-02-21 06:21:00,67.0,52.0,-100.00,East,89,3.0,6.0,58,0.00,,,0.00,0.000000,,2013-02-21 16:21:00,
2013-02-21 06:42:00,67.0,51.0,-100.00,East,94,3.0,6.0,57,0.00,,,0.00,0.000000,,2013-02-21 16:42:00,
2013-02-21 06:52:00,67.0,51.0,-100.00,East,94,3.0,6.0,57,0.00,,,0.00,0.000000,,2013-02-21 16:52:00,
2013-02-21 07:01:00,67.0,51.0,-100.00,East,94,3.0,6.0,57,0.00,,,0.00,0.000000,,2013-02-21 17:01:00,
2013-02-21 07:11:00,67.0,51.0,-100.00,East,94,3.0,6.0,57,0.00,,,0.00,0.000000,,2013-02-21 17:11:00,
2013-02-21 07:21:00,67.0,51.0,-100.00,East,94,3.0,6.0,57,0.00,,,0.00,0.000000,,2013-02-21 17:21:00,
2013-02-21 07:42:00,67.0,50.0,-100.00,East,88,3.0,7.0,54,0.00,,,0.00,2.000000,,2013-02-21 17:42:00,
2013-02-21 07:52:00,67.0,50.0,-100.00,East,88,3.0,7.0,54,0.00,,,0.00,2.000000,,2013-02-21 17:52:00,
2013-02-21 08:01:00,67.0,50.0,-100.00,East,88,3.0,7.0,54,0.00,,,0.00,2.000000,,2013-02-21 18:01:00,
2013-02-21 08:11:00,67.0,50.0,-100.00,East,88,3.0,7.0,54,0.00,,,0.00,2.000000,,2013-02-21 18:11:00,
2013-02-21 08:21:00,67.0,50.0,-100.00,East,88,3.0,7.0,54,0.00,,,0.00,2.000000,,2013-02-21 18:21:00,
2013-02-21 08:42:00,68.0,49.0,-100.00,East,92,3.0,5.0,50,0.00,,,0.00,74.000000,,2013-02-21 18:42:00,
2013-02-21 08:52:00,68.0,49.0,-100.00,East,92,3.0,5.0,50,0.00,,,0.00,74.000000,,2013-02-21 18:52:00,
2013-02-21 09:01:00,68.0,49.0,-100.00,East,92,3.0,5.0,50,0.00,,,0.00,74.000000,,2013-02-21 19:01:00,
2013-02-21 09:11:00,68.0,49.0,-100.00,East,92,3.0,5.0,50,0.00,,,0.00,74.000000,,2013-02-21 19:11:00,
2013-02-21 09:21:00,68.0,49.0,-100.00,East,92,3.0,5.0,50,0.00,,,0.00,74.000000,,2013-02-21 19:21:00,
2013-02-21 09:42:00,76.0,59.0,-100.00,SE,126,2.0,5.0,55,0.00,,,0.00,298.000000,,2013-02-21 19:42:00,
2013-02-21 09:52:00,76.0,59.0,-100.00,SE,126,2.0,5.0,55,0.00,,,0.00,298.000000,,2013-02-21 19:52:00,
2013-02-21 10:01:00,76.0,59.0,-100.00,SE,126,2.0,5.0,55,0.00,,,0.00,298.000000,,2013-02-21 20:01:00,
2013-02-21 10:11:00,76.0,59.0,-100.00,SE,126,2.0,5.0,55,0.00,,,0.00,298.000000,,2013-02-21 20:11:00,
2013-02-21 10:21:00,76.0,59.0,-100.00,SE,126,2.0,5.0,55,0.00,,,0.00,298.000000,,2013-02-21 20:21:00,
2013-02-21 10:42:00,77.0,63.0,-100.00,WSW,237,3.0,7.0,61,0.00,,,0.00,529.000000,,2013-02-21 20:42:00,
2013-02-21 10:53:00,77.0,63.0,-100.00,WSW,237,3.0,7.0,61,0.00,,,0.00,529.000000,,2013-02-21 20:53:00,
2013-02-21 11:02:00,77.0,63.0,-100.00,WSW,237,3.0,7.0,61,0.00,,,0.00,529.000000,,2013-02-21 21:02:00,
2013-02-21 11:11:00,77.0,63.0,-100.00,WSW,237,3.0,7.0,61,0.00,,,0.00,529.000000,,2013-02-21 21:11:00,
2013-02-21 11:21:00,77.0,63.0,-100.00,WSW,237,3.0,7.0,61,0.00,,,0.00,529.000000,,2013-02-21 21:21:00,
2013-02-21 11:42:00,78.0,63.0,-100.00,WSW,242,4.0,8.0,60,0.00,,,-99.99,693.000000,,2013-02-21 21:42:00,
2013-02-21 11:52:00,78.0,63.0,-100.00,WSW,242,4.0,8.0,60,0.00,,,-99.99,693.000000,,2013-02-21 21:52:00,
2013-02-21 12:01:00,78.0,63.0,-100.00,WSW,242,4.0,8.0,60,0.00,,,-99.99,693.000000,,2013-02-21 22:01:00,
2013-02-21 12:11:00,78.0,63.0,-100.00,WSW,242,4.0,8.0,60,0.00,,,-99.99,693.000000,,2013-02-21 22:11:00,
2013-02-21 12:21:00,78.0,63.0,-100.00,WSW,242,4.0,8.0,60,0.00,,,-99.99,693.000000,,2013-02-21 22:21:00,
2013-02-21 12:42:00,78.0,63.0,-100.00,West,270,4.0,10.0,60,0.00,,,0.00,808.000000,,2013-02-21 22:42:00,
2013-02-21 12:52:00,78.0,63.0,-100.00,West,270,4.0,10.0,60,0.00,,,0.00,808.000000,,2013-02-21 22:52:00,
2013-02-21 13:01:00,78.0,63.0,-100.00,West,270,4.0,10.0,60,0.00,,,0.00,808.000000,,2013-02-21 23:01:00,
2013-02-21 13:11:00,78.0,63.0,-100.00,West,270,4.0,10.0,60,0.00,,,0.00,808.000000,,2013-02-21 23:11:00,
2013-02-21 13:21:00,78.0,63.0,-100.00,West,270,4.0,10.0,60,0.00,,,0.00,808.000000,,2013-02-21 23:21:00,
2013-02-21 13:42:00,79.0,63.0,-100.00,West,274,5.0,10.0,59,0.00,,,0.00,825.000000,,2013-02-21 23:42:00,
2013-02-21 13:52:00,79.0,63.0,-100.00,West,274,5.0,10.0,59,0.00,,,0.00,825.000000,,2013-02-21 23:52:00,
2013-02-21 14:01:00,79.0,63.0,-100.00,West,274,5.0,10.0,59,0.00,,,0.00,825.000000,,2013-02-22 00:01:00,
2013-02-21 14:11:00,79.0,63.0,-100.00,West,274,5.0,10.0,59,0.00,,,0.00,825.000000,,2013-02-22 00:11:00,
2013-02-21 14:21:00,79.0,63.0,-100.00,West,274,5.0,10.0,59,0.00,,,0.00,825.000000,,2013-02-22 00:21:00,
2013-02-21 14:42:00,80.0,61.0,-100.00,West,272,5.0,11.0,53,0.00,,,0.00,825.000000,,2013-02-22 00:42:00,
2013-02-21 14:52:00,80.0,61.0,-100.00,West,272,5.0,11.0,53,0.00,,,0.00,825.000000,,2013-02-22 00:52:00,
2013-02-21 15:01:00,80.0,61.0,-100.00,West,272,5.0,11.0,53,0.00,,,0.00,825.000000,,2013-02-22 01:01:00,
2013-02-21 15:11:00,80.0,61.0,-100.00,West,272,5.0,11.0,53,0.00,,,0.00,825.000000,,2013-02-22 01:11:00,
2013-02-21 15:21:00,80.0,61.0,-100.00,West,272,5.0,11.0,53,0.00,,,0.00,825.000000,,2013-02-22 01:21:00,
2013-02-21 15:42:00,79.0,62.0,-100.00,West,263,4.0,9.0,57,0.00,,,0.00,519.000000,,2013-02-22 01:42:00,
2013-02-21 15:52:00,79.0,62.0,-100.00,West,263,4.0,9.0,57,0.00,,,0.00,519.000000,,2013-02-22 01:52:00,
2013-02-21 16:02:00,79.0,62.0,-100.00,West,263,4.0,9.0,57,0.00,,,0.00,519.000000,,2013-02-22 02:02:00,
2013-02-21 16:11:00,79.0,62.0,-100.00,West,263,4.0,9.0,57,0.00,,,0.00,519.000000,,2013-02-22 02:11:00,
2013-02-21 16:21:00,79.0,62.0,-100.00,West,263,4.0,9.0,57,0.00,,,0.00,519.000000,,2013-02-22 02:21:00,
2013-02-21 16:42:00,77.0,63.0,-100.00,WSW,258,3.0,7.0,61,0.00,,,0.00,220.000000,,2013-02-22 02:42:00,
2013-02-21 16:52:00,77.0,63.0,-100.00,WSW,258,3.0,7.0,61,0.00,,,0.00,220.000000,,2013-02-22 02:52:00,
2013-02-21 17:01:00,77.0,63.0,-100.00,WSW,258,3.0,7.0,61,0.00,,,0.00,220.000000,,2013-02-22 03:01:00,
2013-02-21 17:11:00,77.0,63.0,-100.00,WSW,258,3.0,7.0,61,0.00,,,0.00,220.000000,,2013-02-22 03:11:00,
2013-02-21 17:21:00,77.0,63.0,-100.00,WSW,258,3.0,7.0,61,0.00,,,0.00,220.000000,,2013-02-22 03:21:00,
2013-02-21 17:42:00,76.0,62.0,-100.00,SW,229,3.0,7.0,63,0.00,,,0.00,139.000000,,2013-02-22 03:42:00,
2013-02-21 17:52:00,76.0,62.0,-100.00,SW,229,3.0,7.0,63,0.00,,,0.00,139.000000,,2013-02-22 03:52:00,
2013-02-21 18:01:00,76.0,62.0,-100.00,SW,229,3.0,7.0,63,0.00,,,0.00,139.000000,,2013-02-22 04:01:00,
2013-02-21 18:11:00,76.0,62.0,-100.00,SW,229,3.0,7.0,63,0.00,,,0.00,139.000000,,2013-02-22 04:11:00,
2013-02-21 18:21:00,76.0,62.0,-100.00,SW,229,3.0,7.0,63,0.00,,,0.00,139.000000,,2013-02-22 04:21:00,
2013-02-21 18:42:00,75.0,63.0,-100.00,SW,216,3.0,7.0,67,0.00,,,0.00,49.000000,,2013-02-22 04:42:00,
2013-02-21 18:52:00,75.0,63.0,-100.00,SW,216,3.0,7.0,67,0.00,,,0.00,49.000000,,2013-02-22 04:52:00,
2013-02-21 19:01:00,75.0,63.0,-100.00,SW,216,3.0,7.0,67,0.00,,,0.00,49.000000,,2013-02-22 05:01:00,
2013-02-21 19:11:00,75.0,63.0,-100.00,SW,216,3.0,7.0,67,0.00,,,0.00,49.000000,,2013-02-22 05:11:00,
2013-02-21 19:21:00,75.0,63.0,-100.00,SW,216,3.0,7.0,67,0.00,,,0.00,49.000000,,2013-02-22 05:21:00,
2013-02-21 19:42:00,74.0,62.0,-100.00,South,171,2.0,6.0,67,0.00,,,0.00,3.000000,,2013-02-22 05:42:00,
2013-02-21 19:52:00,74.0,62.0,-100.00,South,171,2.0,6.0,67,0.00,,,0.00,3.000000,,2013-02-22 05:52:00,
2013-02-21 20:01:00,74.0,62.0,-100.00,South,171,2.0,6.0,67,0.00,,,0.00,3.000000,,2013-02-22 06:01:00,
2013-02-21 20:11:00,74.0,62.0,-100.00,South,171,2.0,6.0,67,0.00,,,0.00,3.000000,,2013-02-22 06:11:00,
2013-02-21 20:21:00,74.0,62.0,-100.00,South,171,2.0,6.0,67,0.00,,,0.00,3.000000,,2013-02-22 06:21:00,
2013-02-21 20:42:00,73.0,62.0,-100.00,ESE,106,1.0,5.0,69,0.00,,,0.00,0.000000,,2013-02-22 06:42:00,
2013-02-21 20:52:00,73.0,62.0,-100.00,ESE,106,1.0,5.0,69,0.00,,,0.00,0.000000,,2013-02-22 06:52:00,
2013-02-21 21:01:00,73.0,62.0,-100.00,ESE,106,1.0,5.0,69,0.00,,,0.00,0.000000,,2013-02-22 07:01:00,
2013-02-21 21:11:00,73.0,62.0,-100.00,ESE,106,1.0,5.0,69,0.00,,,0.00,0.000000,,2013-02-22 07:11:00,
2013-02-21 21:21:00,73.0,62.0,-100.00,ESE,106,1.0,5.0,69,0.00,,,0.00,0.000000,,2013-02-22 07:21:00,
2013-02-21 21:42:00,73.0,59.0,-100.00,East,84,1.0,4.0,62,0.00,,,0.00,0.000000,,2013-02-22 07:42:00,
2013-02-21 21:52:00,73.0,59.0,-100.00,East,84,1.0,4.0,62,0.00,,,0.00,0.000000,,2013-02-22 07:52:00,
2013-02-21 22:01:00,73.0,59.0,-100.00,East,84,1.0,4.0,62,0.00,,,0.00,0.000000,,2013-02-22 08:01:00,
2013-02-21 22:11:00,73.0,59.0,-100.00,East,84,1.0,4.0,62,0.00,,,0.00,0.000000,,2013-02-22 08:11:00,
2013-02-21 22:21:00,73.0,59.0,-100.00,East,84,1.0,4.0,62,0.00,,,0.00,0.000000,,2013-02-22 08:21:00,
2013-02-21 22:42:00,72.0,58.0,-100.00,ENE,63,2.0,6.0,62,0.00,,,0.00,0.000000,,2013-02-22 08:42:00,
2013-02-21 22:52:00,72.0,58.0,-100.00,ENE,63,2.0,6.0,62,0.00,,,0.00,0.000000,,2013-02-22 08:52:00,
2013-02-21 23:03:00,72.0,58.0,-100.00,ENE,63,2.0,6.0,62,0.00,,,0.00,0.000000,,2013-02-22 09:03:00,
2013-02-21 23:11:00,72.0,58.0,-100.00,ENE,63,2.0,6.0,62,0.00,,,0.00,0.000000,,2013-02-22 09:11:00,
2013-02-21 23:21:00,72.0,58.0,-100.00,ENE,63,2.0,6.0,62,0.00,,,0.00,0.000000,,2013-02-22 09:21:00,
2013-02-21 23:42:00,72.0,56.0,-100.00,NE,39,2.0,5.0,57,0.00,,,0.00,0.000000,,2013-02-22 09:42:00,
2013-02-21 23:52:00,72.0,56.0,-100.00,NE,39,2.0,5.0,57,0.00,,,0.00,0.000000,,2013-02-22 09:52:00,